createdAt,value
2018-08-18T00:00:19.142Z,99.90
2018-08-18T00:02:47.450Z,99.90
2018-08-18T00:05:16.636Z,99.90
2018-08-18T00:07:44.886Z,99.90
2018-08-18T00:10:17.151Z,99.90
2018-08-18T00:12:45.443Z,99.90
2018-08-18T00:15:13.724Z,99.90
2018-08-18T00:17:41.986Z,99.90
2018-08-18T00:20:12.852Z,99.90
2018-08-18T00:22:41.125Z,99.90
2018-08-18T00:25:09.419Z,99.90
2018-08-18T00:27:37.680Z,99.90
2018-08-18T00:30:13.143Z,99.90
2018-08-18T00:32:41.437Z,99.90
2018-08-18T00:35:09.744Z,99.90
2018-08-18T00:37:38.048Z,99.90
2018-08-18T00:40:07.684Z,99.90
2018-08-18T00:42:35.952Z,99.90
2018-08-18T00:45:04.818Z,99.90
2018-08-18T00:47:33.116Z,99.90
2018-08-18T00:50:01.444Z,99.90
2018-08-18T00:52:29.726Z,99.90
2018-08-18T00:54:57.992Z,99.90
2018-08-18T00:57:28.895Z,99.90
2018-08-18T00:59:57.433Z,99.90
2018-08-18T01:02:26.234Z,99.90
2018-08-18T01:04:56.664Z,99.90
2018-08-18T01:07:26.089Z,99.90
2018-08-18T01:09:54.420Z,99.90
2018-08-18T01:12:23.574Z,99.90
2018-08-18T01:14:51.911Z,99.90
2018-08-18T01:17:20.145Z,99.90
2018-08-18T01:19:48.428Z,99.90
2018-08-18T01:22:16.687Z,99.90
2018-08-18T01:24:44.971Z,99.90
2018-08-18T01:27:13.400Z,99.90
2018-08-18T01:29:42.547Z,99.90
2018-08-18T01:32:10.819Z,99.90
2018-08-18T01:34:39.088Z,99.90
2018-08-18T01:37:12.766Z,99.90
2018-08-18T01:39:41.031Z,99.90
2018-08-18T01:42:09.285Z,99.90
2018-08-18T01:44:37.673Z,99.90
2018-08-18T01:47:08.897Z,99.90
2018-08-18T01:49:37.933Z,99.90
2018-08-18T01:52:12.973Z,99.90
2018-08-18T01:54:41.661Z,99.90
2018-08-18T01:57:11.585Z,99.90
2018-08-18T01:59:41.205Z,99.90
2018-08-18T02:02:26.935Z,99.90
2018-08-18T02:05:01.010Z,99.90
2018-08-18T02:07:31.608Z,99.90
2018-08-18T02:09:59.931Z,99.90
2018-08-18T02:12:28.673Z,99.90
2018-08-18T02:14:57.311Z,99.90
2018-08-18T02:17:29.353Z,99.90
2018-08-18T02:19:57.905Z,99.90
2018-08-18T02:22:26.735Z,99.90
2018-08-18T02:24:55.017Z,99.90
2018-08-18T02:27:23.299Z,99.90
2018-08-18T02:30:03.744Z,99.90
2018-08-18T02:32:34.839Z,99.90
2018-08-18T02:35:03.166Z,99.90
2018-08-18T02:37:31.667Z,99.90
2018-08-18T02:39:59.975Z,99.90
2018-08-18T02:42:28.246Z,99.90
2018-08-18T02:44:56.520Z,99.90
2018-08-18T02:47:25.002Z,99.90
2018-08-18T02:49:54.309Z,99.90
2018-08-18T02:52:23.599Z,99.90
2018-08-18T02:54:59.565Z,99.90
2018-08-18T02:57:35.006Z,99.90
2018-08-18T03:00:06.579Z,99.90
2018-08-18T03:02:34.888Z,99.90
2018-08-18T03:05:03.212Z,99.90
2018-08-18T03:07:33.848Z,99.90
2018-08-18T03:10:08.734Z,99.90
2018-08-18T03:12:43.102Z,99.90
2018-08-18T03:15:13.815Z,99.90
2018-08-18T03:17:42.106Z,99.90
2018-08-18T03:20:10.363Z,99.90
2018-08-18T03:22:40.596Z,99.90
2018-08-18T03:25:09.136Z,99.90
2018-08-18T03:27:37.421Z,99.90
2018-08-18T03:30:05.796Z,99.90
2018-08-18T03:32:34.096Z,99.90
2018-08-18T03:35:02.379Z,99.90
2018-08-18T03:37:31.491Z,99.90
2018-08-18T03:39:59.775Z,99.90
2018-08-18T03:42:33.363Z,99.90
2018-08-18T03:45:01.704Z,99.90
2018-08-18T03:47:29.983Z,99.90
2018-08-18T03:49:58.261Z,99.90
2018-08-18T03:52:26.561Z,99.90
2018-08-18T03:54:54.819Z,99.90
2018-08-18T03:57:23.165Z,99.90
2018-08-18T03:59:51.431Z,99.90
2018-08-18T04:02:19.700Z,99.90
2018-08-18T04:04:49.783Z,99.90
2018-08-18T04:07:18.036Z,99.90
2018-08-18T04:09:46.454Z,99.90
2018-08-18T04:12:14.723Z,99.90
2018-08-18T04:14:44.213Z,99.90
2018-08-18T04:17:24.560Z,99.90
2018-08-18T04:19:52.821Z,99.90
2018-08-18T04:22:22.687Z,99.90
2018-08-18T04:24:50.980Z,99.90
2018-08-18T04:27:50.191Z,99.90
2018-08-18T04:30:20.563Z,99.90
2018-08-18T04:32:58.456Z,99.90
2018-08-18T04:35:27.909Z,99.90
2018-08-18T04:37:57.077Z,99.90
2018-08-18T04:40:25.773Z,99.90
2018-08-18T04:42:56.133Z,99.90
2018-08-18T04:45:24.483Z,99.90
2018-08-18T04:47:52.726Z,99.90
2018-08-18T04:50:22.160Z,99.90
2018-08-18T04:52:53.019Z,99.90
2018-08-18T04:55:21.375Z,99.90
2018-08-18T04:57:49.742Z,99.90
2018-08-18T05:00:18.058Z,99.90
2018-08-18T05:02:51.720Z,99.90
2018-08-18T05:05:22.650Z,99.90
2018-08-18T05:07:51.020Z,99.90
2018-08-18T05:10:23.948Z,99.90
2018-08-18T05:12:52.289Z,99.90
2018-08-18T05:15:20.578Z,99.90
2018-08-18T05:17:50.172Z,99.90
2018-08-18T05:20:19.884Z,99.90
2018-08-18T05:22:48.164Z,99.90
2018-08-18T05:25:17.331Z,99.90
2018-08-18T05:27:45.652Z,99.90
2018-08-18T05:30:13.966Z,99.90
2018-08-18T05:32:42.261Z,99.90
2018-08-18T05:35:10.572Z,99.90
2018-08-18T05:37:38.850Z,99.90
2018-08-18T05:40:07.574Z,99.90
2018-08-18T05:42:35.860Z,99.90
2018-08-18T05:45:19.612Z,99.90
2018-08-18T05:47:47.913Z,99.90
2018-08-18T05:50:16.219Z,99.90
2018-08-18T05:52:44.493Z,99.90
2018-08-18T05:55:12.753Z,99.90
2018-08-18T05:57:41.041Z,99.90
2018-08-18T06:00:14.620Z,99.90
2018-08-18T06:02:47.134Z,99.90
2018-08-18T06:05:15.448Z,99.90
2018-08-18T06:07:43.781Z,99.90
2018-08-18T06:10:12.071Z,99.90
2018-08-18T06:12:40.373Z,99.90
2018-08-18T06:15:08.682Z,99.90
2018-08-18T06:17:36.994Z,99.90
2018-08-18T06:20:06.891Z,99.90
2018-08-18T06:22:35.517Z,99.90
2018-08-18T06:25:03.866Z,99.90
2018-08-18T06:27:32.233Z,99.90
2018-08-18T06:30:00.524Z,99.90
2018-08-18T06:32:28.822Z,99.90
2018-08-18T06:34:57.171Z,99.90
2018-08-18T06:37:25.400Z,99.90
2018-08-18T06:39:55.827Z,99.90
2018-08-18T06:42:41.814Z,99.90
2018-08-18T06:45:14.184Z,99.90
2018-08-18T06:47:43.089Z,99.90
2018-08-18T06:50:13.276Z,99.90
2018-08-18T06:52:41.888Z,99.90
2018-08-18T06:55:14.207Z,99.90
2018-08-18T06:57:50.528Z,99.90
2018-08-18T07:00:21.927Z,99.90
2018-08-18T07:02:50.228Z,99.90
2018-08-18T07:05:19.568Z,99.90
2018-08-18T07:07:48.811Z,99.90
2018-08-18T07:10:27.031Z,99.90
2018-08-18T07:12:57.429Z,99.90
2018-08-18T07:15:27.733Z,99.90
2018-08-18T07:17:56.051Z,99.90
2018-08-18T07:20:24.401Z,99.90
2018-08-18T07:22:53.405Z,99.90
2018-08-18T07:25:21.724Z,99.90
2018-08-18T07:27:55.255Z,99.90
2018-08-18T07:30:23.797Z,99.90
2018-08-18T07:32:52.087Z,99.90
2018-08-18T07:35:20.514Z,99.90
2018-08-18T07:37:48.849Z,99.90
2018-08-18T07:40:17.229Z,99.90
2018-08-18T07:42:54.787Z,99.90
2018-08-18T07:45:23.095Z,99.90
2018-08-18T07:47:51.383Z,99.90
2018-08-18T07:50:19.682Z,99.90
2018-08-18T07:52:47.971Z,99.90
2018-08-18T07:55:16.235Z,99.90
2018-08-18T07:57:48.896Z,99.90
2018-08-18T08:00:17.205Z,99.90
2018-08-18T08:02:45.632Z,99.90
2018-08-18T08:05:13.939Z,99.90
2018-08-18T08:07:42.679Z,99.90
2018-08-18T08:10:10.963Z,99.90
2018-08-18T08:12:39.338Z,99.90
2018-08-18T08:15:07.563Z,99.90
2018-08-18T08:17:35.868Z,99.90
2018-08-18T08:20:04.942Z,99.90
2018-08-18T08:22:33.221Z,99.90
2018-08-18T08:25:01.554Z,99.90
2018-08-18T08:27:29.837Z,99.90
2018-08-18T08:29:58.127Z,99.90
2018-08-18T08:32:26.394Z,99.90
2018-08-18T08:34:54.677Z,99.90
2018-08-18T08:37:22.972Z,99.90
2018-08-18T08:39:51.271Z,99.90
2018-08-18T08:42:19.607Z,99.90
2018-08-18T08:44:48.921Z,99.90
2018-08-18T08:47:17.315Z,99.90
2018-08-18T08:49:45.611Z,99.90
2018-08-18T08:52:13.884Z,99.90
2018-08-18T08:54:42.143Z,99.90
2018-08-18T08:57:11.533Z,99.90
2018-08-18T08:59:40.823Z,99.90
2018-08-18T09:02:12.382Z,99.90
2018-08-18T09:04:40.700Z,99.90
2018-08-18T09:07:10.664Z,99.90
2018-08-18T09:09:38.975Z,99.50
2018-08-18T09:12:07.603Z,99.90
2018-08-18T09:14:35.883Z,99.50
2018-08-18T09:17:04.232Z,99.50
2018-08-18T09:19:32.526Z,98.30
2018-08-18T09:22:02.592Z,98.20
2018-08-18T09:24:31.691Z,97.10
2018-08-18T09:27:01.409Z,96.50
2018-08-18T09:29:35.138Z,92.90
2018-08-18T09:32:03.435Z,92.20
2018-08-18T09:34:35.480Z,92.60
2018-08-18T09:37:04.584Z,93.00
2018-08-18T09:39:34.378Z,92.60
2018-08-18T09:42:04.347Z,92.90
2018-08-18T09:44:35.062Z,93.30
2018-08-18T09:47:03.410Z,93.60
2018-08-18T09:49:32.142Z,93.10
2018-08-18T09:52:01.100Z,92.30
2018-08-18T09:54:29.650Z,93.00
2018-08-18T09:56:58.595Z,92.60
2018-08-18T09:59:27.600Z,91.50
2018-08-18T10:01:56.012Z,92.10
2018-08-18T10:04:24.402Z,91.30
2018-08-18T10:06:53.676Z,90.70
2018-08-18T10:09:22.091Z,90.60
2018-08-18T10:11:50.461Z,90.90
2018-08-18T10:14:18.752Z,91.20
2018-08-18T10:16:47.046Z,90.90
2018-08-18T10:19:15.336Z,90.70
2018-08-18T10:21:43.768Z,90.70
2018-08-18T10:24:12.090Z,88.70
2018-08-18T10:26:40.727Z,86.60
2018-08-18T10:29:18.060Z,84.90
2018-08-18T10:31:50.204Z,84.20
2018-08-18T10:34:19.535Z,84.10
2018-08-18T10:36:50.911Z,81.20
2018-08-18T10:39:19.672Z,80.10
2018-08-18T10:41:59.240Z,79.80
2018-08-18T10:44:27.496Z,75.50
2018-08-18T10:47:07.916Z,76.50
2018-08-18T10:49:47.554Z,76.30
2018-08-18T10:52:28.116Z,77.20
2018-08-18T10:54:56.853Z,76.30
2018-08-18T10:57:36.571Z,77.60
2018-08-18T11:00:11.512Z,76.20
2018-08-18T11:02:42.353Z,77.20
2018-08-18T11:05:10.857Z,78.00
2018-08-18T11:07:39.151Z,78.10
2018-08-18T11:10:08.106Z,75.60
2018-08-18T11:12:38.547Z,73.70
2018-08-18T11:15:10.982Z,73.10
2018-08-18T11:17:39.452Z,72.60
2018-08-18T11:20:13.290Z,71.70
2018-08-18T11:22:54.034Z,71.40
2018-08-18T11:25:27.412Z,71.30
2018-08-18T11:27:56.520Z,71.70
2018-08-18T11:30:25.076Z,72.20
2018-08-18T11:32:54.584Z,74.00
2018-08-18T11:35:22.984Z,71.80
2018-08-18T11:38:02.716Z,72.20
2018-08-18T11:40:31.020Z,70.40
2018-08-18T11:43:01.416Z,69.40
2018-08-18T11:45:30.836Z,72.20
2018-08-18T11:48:11.243Z,68.70
2018-08-18T11:50:39.874Z,68.80
2018-08-18T11:53:08.190Z,67.90
2018-08-18T11:55:36.891Z,67.70
2018-08-18T11:58:11.892Z,69.40
2018-08-18T12:00:43.904Z,69.50
2018-08-18T12:03:13.377Z,68.20
2018-08-18T12:05:46.582Z,67.30
2018-08-18T12:08:15.818Z,66.30
2018-08-18T12:10:44.135Z,66.40
2018-08-18T12:13:12.453Z,68.00
2018-08-18T12:16:02.476Z,68.40
2018-08-18T12:18:31.837Z,66.10
2018-08-18T12:21:01.220Z,65.00
2018-08-18T12:23:30.176Z,63.60
2018-08-18T12:26:07.156Z,63.30
2018-08-18T12:28:42.642Z,62.80
2018-08-18T12:31:13.080Z,63.10
2018-08-18T12:33:41.425Z,63.00
2018-08-18T12:36:09.833Z,62.10
2018-08-18T12:38:41.120Z,63.30
2018-08-18T12:41:12.307Z,63.30
2018-08-18T12:43:44.824Z,62.10
2018-08-18T12:46:14.446Z,63.40
2018-08-18T12:48:43.962Z,61.80
2018-08-18T12:51:13.352Z,62.40
2018-08-18T12:53:46.964Z,58.60
2018-08-18T12:56:17.034Z,59.20
2018-08-18T12:58:45.473Z,58.40
2018-08-18T13:01:15.156Z,57.80
2018-08-18T13:03:43.427Z,58.30
2018-08-18T13:06:11.708Z,58.80
2018-08-18T13:08:40.049Z,57.00
2018-08-18T13:11:08.364Z,56.50
2018-08-18T13:13:36.645Z,56.20
2018-08-18T13:16:04.952Z,56.70
2018-08-18T13:18:33.775Z,57.20
2018-08-18T13:21:01.997Z,59.00
2018-08-18T13:23:30.285Z,59.70
2018-08-18T13:25:58.629Z,58.00
2018-08-18T13:28:26.929Z,56.50
2018-08-18T13:30:55.208Z,55.80
2018-08-18T13:33:24.068Z,55.80
2018-08-18T13:35:52.341Z,55.10
2018-08-18T13:38:29.764Z,55.70
2018-08-18T13:40:58.107Z,56.00
2018-08-18T13:43:40.056Z,56.00
2018-08-18T13:46:10.100Z,55.40
2018-08-18T13:48:38.450Z,54.20
2018-08-18T13:51:07.881Z,53.30
2018-08-18T13:53:43.429Z,53.70
2018-08-18T13:56:11.733Z,53.60
2018-08-18T13:58:40.050Z,52.90
2018-08-18T14:01:23.767Z,52.90
2018-08-18T14:03:52.289Z,53.30
2018-08-18T14:06:20.564Z,54.30
2018-08-18T14:08:53.071Z,54.60
2018-08-18T14:11:21.381Z,54.60
2018-08-18T14:13:49.673Z,54.40
2018-08-18T14:16:17.965Z,53.30
2018-08-18T14:18:46.274Z,52.50
2018-08-18T14:21:14.607Z,53.70
2018-08-18T14:23:42.901Z,54.40
2018-08-18T14:26:11.225Z,54.60
2018-08-18T14:28:39.526Z,54.40
2018-08-18T14:31:07.815Z,54.30
2018-08-18T14:33:36.119Z,54.90
2018-08-18T14:36:10.519Z,53.70
2018-08-18T14:38:38.900Z,53.80
2018-08-18T14:41:07.395Z,54.00
2018-08-18T14:43:38.863Z,51.00
2018-08-18T14:46:11.582Z,51.70
2018-08-18T14:48:39.891Z,52.10
2018-08-18T14:51:08.579Z,52.80
2018-08-18T14:53:40.720Z,52.60
2018-08-18T14:56:09.004Z,53.00
2018-08-18T14:58:37.406Z,52.40
2018-08-18T15:01:10.145Z,52.50
2018-08-18T15:03:38.709Z,52.70
2018-08-18T15:06:06.999Z,52.70
2018-08-18T15:08:35.369Z,52.30
2018-08-18T15:11:03.659Z,52.60
2018-08-18T15:13:31.958Z,52.20
2018-08-18T15:16:00.259Z,52.40
2018-08-18T15:18:28.597Z,50.80
2018-08-18T15:20:56.966Z,50.60
2018-08-18T15:23:25.208Z,50.70
2018-08-18T15:25:53.503Z,51.30
2018-08-18T15:28:21.958Z,51.70
2018-08-18T15:30:51.685Z,50.80
2018-08-18T15:33:21.588Z,48.40
2018-08-18T15:35:49.924Z,47.40
2018-08-18T15:38:18.305Z,47.90
2018-08-18T15:40:46.600Z,47.80
2018-08-18T15:43:14.896Z,46.90
2018-08-18T15:45:57.713Z,47.50
2018-08-18T15:48:26.167Z,47.30
2018-08-18T15:50:54.504Z,47.80
2018-08-18T15:53:36.903Z,46.50
2018-08-18T15:56:05.171Z,47.20
2018-08-18T15:58:33.510Z,45.80
2018-08-18T16:01:01.872Z,45.50
2018-08-18T16:03:30.070Z,46.20
2018-08-18T16:05:58.354Z,46.20
2018-08-18T16:08:26.677Z,46.10
2018-08-18T16:10:54.951Z,46.20
2018-08-18T16:13:23.257Z,45.30
2018-08-18T16:15:51.561Z,45.00
2018-08-18T16:18:19.850Z,45.10
2018-08-18T16:20:48.218Z,44.80
2018-08-18T16:23:21.846Z,44.80
2018-08-18T16:25:50.159Z,45.90
2018-08-18T16:28:20.756Z,46.80
2018-08-18T16:30:49.125Z,47.60
2018-08-18T16:33:20.258Z,47.90
2018-08-18T16:35:48.595Z,47.50
2018-08-18T16:38:16.932Z,47.40
2018-08-18T16:40:45.210Z,47.60
2018-08-18T16:43:14.605Z,47.80
2018-08-18T16:45:42.886Z,48.10
2018-08-18T16:48:12.402Z,47.60
2018-08-18T16:50:41.417Z,47.80
2018-08-18T16:53:11.030Z,48.30
2018-08-18T16:55:40.731Z,48.20
2018-08-18T16:58:09.085Z,48.00
2018-08-18T17:00:54.188Z,48.40
2018-08-18T17:03:27.686Z,47.90
2018-08-18T17:05:55.971Z,48.40
2018-08-18T17:08:24.263Z,48.10
2018-08-18T17:10:52.559Z,48.30
2018-08-18T17:13:21.127Z,48.40
2018-08-18T17:15:50.015Z,48.20
2018-08-18T17:18:18.305Z,48.30
2018-08-18T17:20:51.323Z,48.20
2018-08-18T17:23:19.603Z,48.50
2018-08-18T17:25:47.893Z,48.60
2018-08-18T17:28:16.167Z,48.70
2018-08-18T17:30:44.971Z,48.70
2018-08-18T17:33:13.273Z,49.00
2018-08-18T17:35:41.553Z,49.10
2018-08-18T17:38:09.869Z,49.00
2018-08-18T17:40:38.255Z,49.00
2018-08-18T17:43:06.593Z,49.50
2018-08-18T17:45:39.617Z,49.40
2018-08-18T17:48:07.927Z,49.60
2018-08-18T17:50:37.159Z,49.70
2018-08-18T17:53:06.477Z,49.60
2018-08-18T17:55:34.746Z,49.50
2018-08-18T17:58:03.071Z,49.70
2018-08-18T18:00:31.458Z,50.20
2018-08-18T18:03:00.801Z,50.50
2018-08-18T18:05:31.951Z,50.80
2018-08-18T18:08:02.826Z,50.90
2018-08-18T18:10:32.433Z,51.30
2018-08-18T18:13:00.801Z,51.60
2018-08-18T18:15:35.972Z,51.70
2018-08-18T18:18:04.553Z,51.80
2018-08-18T18:20:33.810Z,52.10
2018-08-18T18:23:02.127Z,52.40
2018-08-18T18:25:30.434Z,52.40
2018-08-18T18:28:00.496Z,52.70
2018-08-18T18:30:29.405Z,52.80
2018-08-18T18:32:57.979Z,53.00
2018-08-18T18:35:26.783Z,53.30
2018-08-18T18:37:58.337Z,53.60
2018-08-18T18:40:26.711Z,53.90
2018-08-18T18:42:54.967Z,54.50
2018-08-18T18:45:24.295Z,54.40
2018-08-18T18:47:52.575Z,55.70
2018-08-18T18:50:20.927Z,57.10
2018-08-18T18:52:49.247Z,57.50
2018-08-18T18:55:17.846Z,58.20
2018-08-18T18:58:01.694Z,58.60
2018-08-18T19:00:30.924Z,58.40
2018-08-18T19:02:59.223Z,58.20
2018-08-18T19:05:28.972Z,58.00
2018-08-18T19:08:01.722Z,57.90
2018-08-18T19:10:30.041Z,57.70
2018-08-18T19:12:59.401Z,57.60
2018-08-18T19:15:28.460Z,57.80
2018-08-18T19:17:56.729Z,58.00
2018-08-18T19:20:26.882Z,58.50
2018-08-18T19:23:02.472Z,59.30
2018-08-18T19:25:31.223Z,60.40
2018-08-18T19:27:59.544Z,61.30
2018-08-18T19:30:27.815Z,60.70
2018-08-18T19:32:56.156Z,60.50
2018-08-18T19:35:29.704Z,60.30
2018-08-18T19:37:58.039Z,60.10
2018-08-18T19:40:26.678Z,60.30
2018-08-18T19:42:54.944Z,60.50
2018-08-18T19:45:23.273Z,61.10
2018-08-18T19:47:51.548Z,62.00
2018-08-18T19:50:19.862Z,62.20
2018-08-18T19:52:55.516Z,62.70
2018-08-18T19:55:23.769Z,63.10
2018-08-18T19:57:52.128Z,63.60
2018-08-18T20:00:20.460Z,64.00
2018-08-18T20:03:02.986Z,64.20
2018-08-18T20:05:31.293Z,64.60
2018-08-18T20:07:59.597Z,65.30
2018-08-18T20:10:27.907Z,65.90
2018-08-18T20:12:56.294Z,66.10
2018-08-18T20:15:24.636Z,66.90
2018-08-18T20:17:52.966Z,67.50
2018-08-18T20:20:23.010Z,67.70
2018-08-18T20:22:51.384Z,68.30
2018-08-18T20:25:26.090Z,69.30
2018-08-18T20:27:54.379Z,69.80
2018-08-18T20:30:22.670Z,70.10
2018-08-18T20:32:50.936Z,71.20
2018-08-18T20:35:19.230Z,72.10
2018-08-18T20:37:47.544Z,72.50
2018-08-18T20:40:15.860Z,73.10
2018-08-18T20:42:44.808Z,73.30
2018-08-18T20:45:13.722Z,73.10
2018-08-18T20:47:43.718Z,73.20
2018-08-18T20:50:12.508Z,73.20
2018-08-18T20:52:41.195Z,73.70
2018-08-18T20:55:09.748Z,74.00
2018-08-18T20:57:38.016Z,74.30
2018-08-18T21:00:08.036Z,74.20
2018-08-18T21:02:36.334Z,74.60
2018-08-18T21:05:05.656Z,74.60
2018-08-18T21:07:34.898Z,74.70
2018-08-18T21:10:06.999Z,74.80
2018-08-18T21:12:40.590Z,75.20
2018-08-18T21:15:08.892Z,75.10
2018-08-18T21:17:37.200Z,75.20
2018-08-18T21:20:07.908Z,75.30
2018-08-18T21:22:36.498Z,75.60
2018-08-18T21:25:05.589Z,76.00
2018-08-18T21:27:33.877Z,76.50
2018-08-18T21:30:02.156Z,76.80
2018-08-18T21:32:30.427Z,77.40
2018-08-18T21:34:58.710Z,77.60
2018-08-18T21:37:26.982Z,77.70
2018-08-18T21:39:55.264Z,78.10
2018-08-18T21:42:23.525Z,78.20
2018-08-18T21:44:54.053Z,78.40
2018-08-18T21:47:22.363Z,78.80
2018-08-18T21:49:50.638Z,80.10
2018-08-18T21:52:18.925Z,81.30
2018-08-18T21:54:47.231Z,82.40
2018-08-18T21:57:15.467Z,85.20
2018-08-18T21:59:54.485Z,85.50
2018-08-18T22:02:36.125Z,86.80
2018-08-18T22:05:04.874Z,87.80
2018-08-18T22:07:53.575Z,88.30
2018-08-18T22:10:21.857Z,88.80
2018-08-18T22:12:50.136Z,89.30
2018-08-18T22:15:20.233Z,90.00
2018-08-18T22:17:49.730Z,90.10
2018-08-18T22:20:19.593Z,90.10
2018-08-18T22:22:47.982Z,90.10
2018-08-18T22:25:16.202Z,90.30
2018-08-18T22:27:44.580Z,90.50
2018-08-18T22:30:14.635Z,90.80
2018-08-18T22:32:44.130Z,91.00
2018-08-18T22:35:13.114Z,91.20
2018-08-18T22:37:41.731Z,91.30
2018-08-18T22:40:11.001Z,91.50
2018-08-18T22:42:39.499Z,91.70
2018-08-18T22:45:20.359Z,91.80
2018-08-18T22:47:48.679Z,92.00
2018-08-18T22:50:16.965Z,92.10
2018-08-18T22:52:49.442Z,92.30
2018-08-18T22:55:18.025Z,92.50
2018-08-18T22:57:53.439Z,92.80
2018-08-18T23:00:22.435Z,93.10
2018-08-18T23:02:51.039Z,93.30
2018-08-18T23:05:20.137Z,93.80
2018-08-18T23:07:50.147Z,94.50
2018-08-18T23:10:18.429Z,94.50
2018-08-18T23:12:46.835Z,94.90
2018-08-18T23:15:15.121Z,95.00
2018-08-18T23:17:43.394Z,95.20
2018-08-18T23:20:11.733Z,95.40
2018-08-18T23:22:55.214Z,95.60
2018-08-18T23:25:25.018Z,95.80
2018-08-18T23:27:53.813Z,95.90
2018-08-18T23:30:25.745Z,96.10
2018-08-18T23:32:54.029Z,96.40
2018-08-18T23:35:24.395Z,96.60
2018-08-18T23:37:53.107Z,97.00
2018-08-18T23:40:21.441Z,96.90
2018-08-18T23:42:49.707Z,97.10
2018-08-18T23:45:18.015Z,97.20
2018-08-18T23:47:54.257Z,97.30
2018-08-18T23:50:22.549Z,97.50
2018-08-18T23:52:59.221Z,97.70
2018-08-18T23:55:28.764Z,98.30
2018-08-18T23:57:57.171Z,98.10
